Time;durP1;ratioP1;P1;durP2;ratioP2;P2;SDS_P1;SDS_P2;PMS_P1;PMS_P2;Temp;Humidity;BMP_temperature;BMP_pressure;BME280_temperature;BME280_humidity;BME280_pressure;Samples;Min_cycle;Max_cycle;Signal;HPM_P1;HPM_P2
2022/04/11 00:00:10;;;;;;;6.72;2.53;;;;;;;0.45;95.50;101902.66;1043241;28;20860;-77
2022/04/11 00:00:42;;;;;;;4.43;2.17;;;;;;;0.13;95.34;101898.22;1042292;28;20307;-77
2022/04/11 00:01:14;;;;;;;4.28;3.13;;;;;;;-0.01;95.63;101901.09;1042496;28;20778;-78
2022/04/11 00:01:46;;;;;;;4.43;3.15;;;;;;;-0.03;95.16;101897.75;1042356;28;20529;-77
2022/04/11 00:02:18;;;;;;;5.30;2.92;;;;;;;-0.02;95.40;101894.19;1044469;28;20729;-78
2022/04/11 00:02:49;;;;;;;4.07;2.78;;;;;;;0.20;95.61;101898.56;1041126;28;20720;-78
2022/04/11 00:03:21;;;;;;;3.28;2.90;;;;;;;0.01;95.40;101899.22;1040103;28;20778;-78
2022/04/11 00:03:53;;;;;;;4.88;2.88;;;;;;;0.08;95.59;101895.16;1040550;28;20386;-78
2022/04/11 00:04:24;;;;;;;12.05;3.58;;;;;;;0.19;95.42;101896.91;1042903;28;20312;-78
2022/04/11 00:04:56;;;;;;;3.92;2.78;;;;;;;0.20;95.38;101896.78;1046379;28;20855;-78
2022/04/11 00:05:27;;;;;;;8.15;3.22;;;;;;;0.26;95.53;101893.66;1048094;28;20309;-78
2022/04/11 00:06:00;;;;;;;4.45;2.80;;;;;;;0.27;95.37;101905.81;1040407;28;20370;-78
2022/04/11 00:06:31;;;;;;;2.58;2.38;;;;;;;0.25;95.55;101897.22;1042818;28;20303;-78
2022/04/11 00:07:03;;;;;;;5.78;2.85;;;;;;;0.07;95.08;101901.34;1043606;28;20670;-78
2022/04/11 00:07:37;;;;;;;7.25;2.80;;;;;;;0.17;94.48;101894.41;1048085;28;20434;-78
2022/04/11 00:08:09;;;;;;;7.13;3.03;;;;;;;0.15;95.14;101903.34;1048221;28;20302;-78
2022/04/11 00:08:40;;;;;;;6.28;3.72;;;;;;;0.04;95.05;101904.19;1047711;28;20710;-78
2022/04/11 00:09:12;;;;;;;5.00;3.35;;;;;;;0.19;94.75;101905.59;1041965;28;20304;-78
2022/04/11 00:09:44;;;;;;;5.10;3.15;;;;;;;0.35;94.52;101907.00;1036398;28;20662;-78
2022/04/11 00:10:16;;;;;;;3.95;2.80;;;;;;;0.34;94.45;101906.16;1036381;28;20297;-77
2022/04/11 00:10:48;;;;;;;7.00;3.00;;;;;;;0.25;94.54;101899.84;1037011;28;20800;-78
2022/04/11 00:11:19;;;;;;;3.22;2.90;;;;;;;0.12;94.71;101896.56;1035915;28;20301;-78
2022/04/11 00:11:52;;;;;;;5.30;2.72;;;;;;;0.15;94.55;101890.25;1040238;28;20292;-78
2022/04/11 00:12:23;;;;;;;4.78;2.58;;;;;;;0.01;94.63;101899.22;1038597;28;20304;-77
2022/04/11 00:13:06;;;;;;;6.40;3.22;;;;;;;0.10;94.82;101897.63;1045196;28;20292;-78
2022/04/11 00:13:40;;;;;;;4.22;2.40;;;;;;;-0.03;94.88;101898.59;1048941;28;20278;-77
2022/04/11 00:14:13;;;;;;;4.97;2.88;;;;;;;0.16;95.07;101897.16;1044326;28;20303;-78
2022/04/11 00:14:44;;;;;;;4.50;2.90;;;;;;;0.23;95.15;101893.91;1040286;28;20299;-79
2022/04/11 00:15:16;;;;;;;4.50;3.25;;;;;;;0.11;94.88;101897.50;1042656;28;20302;-78
2022/04/11 00:15:48;;;;;;;3.47;2.78;;;;;;;0.11;94.76;101900.13;1044507;28;20859;-78
2022/04/11 00:16:20;;;;;;;5.25;2.92;;;;;;;0.11;95.03;101894.91;1044480;28;20304;-78
2022/04/11 00:16:52;;;;;;;5.53;3.15;;;;;;;0.07;95.16;101892.66;1047536;28;20848;-78
2022/04/11 00:17:23;;;;;;;8.45;3.35;;;;;;;0.02;95.00;101897.44;1050289;28;20795;-78
2022/04/11 00:17:55;;;;;;;5.25;3.20;;;;;;;-0.07;95.02;101894.56;1053050;28;20305;-78
2022/04/11 00:18:29;;;;;;;5.05;3.42;;;;;;;0.10;95.11;101893.22;1053348;28;20305;-78
2022/04/11 00:19:01;;;;;;;6.45;2.80;;;;;;;0.05;95.36;101895.38;1052255;28;20780;-78
2022/04/11 00:19:33;;;;;;;4.57;2.80;;;;;;;0.06;95.24;101891.81;1046854;28;20298;-78
2022/04/11 00:20:05;;;;;;;4.35;2.90;;;;;;;0.02;95.47;101895.63;1040384;28;20714;-78
2022/04/11 00:20:36;;;;;;;8.90;4.20;;;;;;;-0.01;95.61;101888.81;1035406;28;20293;-79
2022/04/11 00:21:08;;;;;;;4.25;2.90;;;;;;;-0.10;95.55;101891.34;1038142;28;20300;-78
2022/04/11 00:21:39;;;;;;;4.72;2.85;;;;;;;0.06;95.26;101889.19;1042535;28;20366;-78
2022/04/11 00:22:11;;;;;;;6.55;3.63;;;;;;;0.09;95.32;101888.94;1038326;28;20308;-79
2022/04/11 00:22:42;;;;;;;8.73;3.22;;;;;;;0.04;95.46;101892.91;1044288;28;20290;-78
2022/04/11 00:23:14;;;;;;;7.95;3.60;;;;;;;-0.15;95.23;101883.03;1044416;28;20305;-78
2022/04/11 00:23:46;;;;;;;6.85;3.47;;;;;;;-0.13;95.51;101886.34;1038482;28;20304;-78
2022/04/11 00:24:17;;;;;;;5.47;4.32;;;;;;;-0.22;95.92;101887.09;1037692;28;20305;-78
2022/04/11 00:24:50;;;;;;;5.72;3.03;;;;;;;-0.07;95.69;101884.09;1040523;28;20288;-78
2022/04/11 00:25:24;;;;;;;4.55;3.42;;;;;;;0.02;95.74;101884.31;1031460;28;20301;-79
2022/04/11 00:25:55;;;;;;;9.50;3.97;;;;;;;-0.02;96.00;101888.94;1034487;28;20312;-79
2022/04/11 00:26:27;;;;;;;5.65;3.40;;;;;;;-0.03;95.98;101889.91;1043732;28;20316;-79
2022/04/11 00:26:58;;;;;;;10.07;4.25;;;;;;;0.07;95.57;101893.47;1040779;28;20398;-79
2022/04/11 00:27:30;;;;;;;8.90;3.78;;;;;;;0.19;95.95;101887.25;1044516;28;20811;-79
2022/04/11 00:28:02;;;;;;;6.85;3.70;;;;;;;0.10;95.49;101893.22;1041860;28;20310;-79
2022/04/11 00:28:33;;;;;;;6.75;4.00;;;;;;;0.06;95.56;101885.75;1041426;28;20304;-79
2022/04/11 00:29:05;;;;;;;4.63;3.33;;;;;;;0.11;95.65;101879.19;1045093;28;20299;-79
2022/04/11 00:29:37;;;;;;;5.60;3.20;;;;;;;0.14;95.66;101888.56;1041066;28;20363;-79
2022/04/11 00:30:09;;;;;;;3.72;3.42;;;;;;;0.09;95.67;101878.47;1046663;28;20389;-79
2022/04/11 00:30:41;;;;;;;5.00;4.20;;;;;;;-0.07;95.76;101889.31;1039873;28;20379;-79
2022/04/11 00:31:13;;;;;;;4.90;3.80;;;;;;;-0.04;95.85;101880.38;1035926;28;20396;-79
2022/04/11 00:31:44;;;;;;;6.38;4.13;;;;;;;-0.02;95.67;101883.72;1034470;28;20304;-79
2022/04/11 00:32:16;;;;;;;5.05;4.28;;;;;;;0.09;96.10;101888.94;1034771;28;20289;-79
2022/04/11 00:32:47;;;;;;;7.80;4.28;;;;;;;0.01;95.67;101882.66;1032317;28;20393;-80
2022/04/11 00:33:19;;;;;;;7.68;4.65;;;;;;;-0.06;95.59;101888.38;1039918;28;20635;-80
2022/04/11 00:33:51;;;;;;;5.15;3.30;;;;;;;0.07;95.65;101883.00;1036256;28;20323;-79
2022/04/11 00:34:23;;;;;;;5.93;3.83;;;;;;;0.08;95.46;101889.91;1032057;28;20324;-80
2022/04/11 00:34:54;;;;;;;8.57;3.65;;;;;;;0.14;95.27;101884.16;1038855;28;20715;-79
2022/04/11 00:35:26;;;;;;;7.78;4.28;;;;;;;0.19;95.87;101889.88;1032585;28;20321;-79
2022/04/11 00:35:58;;;;;;;7.13;3.63;;;;;;;0.11;95.43;101887.03;1038627;28;20658;-80
2022/04/11 00:36:30;;;;;;;5.78;3.17;;;;;;;0.11;95.49;101884.41;1035970;28;20679;-79
2022/04/11 00:37:02;;;;;;;5.05;3.97;;;;;;;0.02;95.72;101885.16;1033781;28;20313;-78
2022/04/11 00:37:35;;;;;;;6.35;3.78;;;;;;;0.04;95.90;101880.63;1033171;28;20306;-79
2022/04/11 00:38:06;;;;;;;4.32;3.80;;;;;;;0.02;95.61;101882.53;1033302;28;20379;-79
2022/04/11 00:38:38;;;;;;;4.93;3.47;;;;;;;-0.11;96.13;101881.84;1030153;28;20290;-79
2022/04/11 00:39:09;;;;;;;7.10;3.85;;;;;;;-0.09;95.99;101882.53;1033013;28;20297;-78
2022/04/11 00:39:41;;;;;;;4.40;3.58;;;;;;;-0.11;95.97;101884.44;1030245;28;20306;-79
2022/04/11 00:40:14;;;;;;;6.45;3.92;;;;;;;-0.06;95.84;101882.28;1029671;28;20396;-78
2022/04/11 00:40:46;;;;;;;5.72;3.78;;;;;;;-0.07;96.00;101880.63;1036276;28;20727;-78
2022/04/11 00:41:17;;;;;;;7.30;3.83;;;;;;;0.06;95.96;101876.09;1033345;28;20293;-78
2022/04/11 00:41:49;;;;;;;7.20;4.13;;;;;;;0.07;96.06;101877.75;1042108;28;20302;-79
2022/04/11 00:42:20;;;;;;;3.83;3.42;;;;;;;0.13;96.12;101879.88;1050911;28;20688;-79
2022/04/11 00:42:52;;;;;;;5.40;3.83;;;;;;;0.23;95.82;101883.41;1044352;28;20303;-79
2022/04/11 00:43:33;;;;;;;4.13;3.60;;;;;;;0.17;95.92;101877.84;1042711;28;22078;-78
2022/04/11 00:44:05;;;;;;;4.88;3.38;;;;;;;0.13;96.27;101882.50;1038683;28;20292;-79
2022/04/11 00:44:37;;;;;;;4.68;3.90;;;;;;;0.16;96.16;101879.63;1040534;28;20313;-79
2022/04/11 00:45:09;;;;;;;5.53;3.95;;;;;;;0.02;96.03;101874.69;1041758;28;20303;-78
2022/04/11 00:45:40;;;;;;;8.20;4.00;;;;;;;-0.11;95.49;101874.81;1047343;28;20299;-79
2022/04/11 00:46:12;;;;;;;5.35;3.78;;;;;;;-0.06;95.78;101874.44;1044898;28;20338;-79
2022/04/11 00:46:44;;;;;;;5.57;4.07;;;;;;;0.07;96.50;101872.53;1041563;28;20797;-79
2022/04/11 00:47:15;;;;;;;6.63;3.85;;;;;;;0.09;95.71;101878.47;1036697;28;20810;-79
2022/04/11 00:47:47;;;;;;;8.27;4.10;;;;;;;0.07;95.87;101883.00;1036623;28;20297;-78
2022/04/11 00:48:19;;;;;;;8.57;4.15;;;;;;;0.05;95.88;101879.69;1040718;28;20374;-78
2022/04/11 00:48:50;;;;;;;11.05;4.80;;;;;;;0.08;95.93;101882.03;1047159;28;20303;-79
2022/04/11 00:49:22;;;;;;;5.32;4.63;;;;;;;0.13;95.97;101869.41;1046122;28;20326;-79
2022/04/11 00:50:14;;;;;;;5.70;3.72;;;;;;;0.03;95.86;101875.50;1043369;28;20296;-79
2022/04/11 00:50:46;;;;;;;7.65;3.78;;;;;;;0.10;95.65;101877.50;1048392;28;20301;-79
2022/04/11 00:51:20;;;;;;;9.15;4.15;;;;;;;0.03;95.57;101876.34;1046092;28;20784;-78
2022/04/11 00:51:52;;;;;;;6.13;3.67;;;;;;;-0.03;95.60;101871.56;1039638;28;20300;-79
2022/04/11 00:52:24;;;;;;;11.90;4.00;;;;;;;-0.04;95.54;101869.91;1040155;28;20367;-79
2022/04/11 00:52:56;;;;;;;4.35;3.72;;;;;;;-0.23;95.77;101875.78;1036235;28;20312;-78
2022/04/11 00:53:29;;;;;;;9.70;4.28;;;;;;;-0.21;95.91;101868.66;1041514;28;20678;-79
2022/04/11 00:54:02;;;;;;;5.25;3.65;;;;;;;-0.12;96.14;101873.16;1038316;28;20304;-80
2022/04/11 00:54:34;;;;;;;8.25;3.63;;;;;;;-0.17;96.15;101874.47;1030853;28;20301;-79
2022/04/11 00:55:09;;;;;;;6.53;3.92;;;;;;;-0.15;95.86;101869.94;1033961;28;20363;-79
2022/04/11 00:55:42;;;;;;;4.57;3.88;;;;;;;-0.11;96.57;101866.13;1034501;28;20301;-80
2022/04/11 00:56:16;;;;;;;8.10;3.97;;;;;;;-0.16;96.05;101869.09;1034000;28;20353;-79
2022/04/11 00:56:48;;;;;;;5.85;4.00;;;;;;;-0.23;96.43;101869.72;1037506;28;20412;-79
2022/04/11 00:57:20;;;;;;;6.22;4.32;;;;;;;-0.26;96.27;101868.19;1036126;28;20908;-79
2022/04/11 00:57:51;;;;;;;5.47;3.53;;;;;;;-0.27;96.31;101868.28;1029717;28;20298;-79
2022/04/11 00:58:23;;;;;;;6.13;4.30;;;;;;;-0.24;96.40;101874.13;1036041;28;20378;-79
2022/04/11 00:58:56;;;;;;;4.00;3.63;;;;;;;-0.32;96.15;101874.72;1034793;28;20810;-79
2022/04/11 00:59:28;;;;;;;4.78;3.15;;;;;;;-0.33;96.26;101869.59;1033781;28;20316;-79
2022/04/11 01:00:00;;;;;;;5.28;3.85;;;;;;;-0.20;96.46;101875.53;1035361;28;20669;-78
2022/04/11 01:00:31;;;;;;;9.02;4.15;;;;;;;-0.15;96.45;101872.56;1032801;28;20302;-78
2022/04/11 01:01:04;;;;;;;13.05;4.72;;;;;;;-0.25;96.48;101874.25;1034950;28;20311;-80
2022/04/11 01:01:36;;;;;;;6.57;4.00;;;;;;;-0.37;96.67;101874.25;1032464;28;20304;-79
2022/04/11 01:02:09;;;;;;;6.40;3.90;;;;;;;-0.51;96.42;101864.03;1036868;28;20822;-79
2022/04/11 01:02:41;;;;;;;5.38;4.10;;;;;;;-0.44;96.74;101870.44;1033653;28;20333;-79
2022/04/11 01:03:13;;;;;;;7.07;4.40;;;;;;;-0.42;96.69;101871.16;1032877;28;20301;-79
2022/04/11 01:03:45;;;;;;;5.40;3.75;;;;;;;-0.38;96.69;101875.19;1038607;28;20307;-79
2022/04/11 01:04:27;;;;;;;8.52;4.53;;;;;;;-0.39;97.09;101868.28;1036403;28;20300;-79
2022/04/11 01:05:09;;;;;;;8.63;3.90;;;;;;;-0.41;96.59;101866.75;1044831;28;20358;-80
2022/04/11 01:05:41;;;;;;;7.88;3.47;;;;;;;-0.43;96.76;101871.28;1039998;28;20929;-80
2022/04/11 01:06:12;;;;;;;8.48;4.55;;;;;;;-0.55;96.77;101866.97;1047556;28;20286;-79
2022/04/11 01:06:44;;;;;;;8.05;4.13;;;;;;;-0.37;97.03;101868.16;1045505;28;20299;-79
2022/04/11 01:07:16;;;;;;;9.73;3.38;;;;;;;-0.13;97.10;101868.03;1049046;28;20302;-79
2022/04/11 01:07:48;;;;;;;7.15;4.55;;;;;;;-0.06;97.15;101866.59;1048279;28;20287;-79
2022/04/11 01:08:20;;;;;;;8.50;4.25;;;;;;;-0.03;97.16;101861.09;1048139;28;20302;-78
2022/04/11 01:08:52;;;;;;;9.57;4.90;;;;;;;0.02;96.85;101863.38;1048283;28;20648;-78
2022/04/11 01:09:24;;;;;;;7.72;4.40;;;;;;;-0.17;96.82;101864.81;1048455;28;20314;-79
2022/04/11 01:09:56;;;;;;;6.93;4.07;;;;;;;-0.28;96.80;101856.97;1044240;28;20302;-79
2022/04/11 01:10:28;;;;;;;7.03;3.85;;;;;;;-0.20;97.15;101864.25;1042920;28;20303;-79
2022/04/11 01:11:00;;;;;;;6.38;4.28;;;;;;;-0.07;96.98;101871.00;1036633;28;20309;-78
2022/04/11 01:11:32;;;;;;;6.70;4.70;;;;;;;0.04;97.12;101864.91;1038874;28;20295;-79
2022/04/11 01:12:04;;;;;;;5.88;3.97;;;;;;;0.16;96.95;101863.09;1032474;28;20305;-79
2022/04/11 01:12:37;;;;;;;5.93;4.13;;;;;;;0.06;96.99;101860.38;1032581;28;20775;-79
2022/04/11 01:13:09;;;;;;;6.78;4.20;;;;;;;-0.10;96.64;101859.94;1038829;28;20319;-79
2022/04/11 01:13:42;;;;;;;5.30;4.03;;;;;;;-0.20;96.54;101857.22;1032848;28;20440;-79
2022/04/11 01:14:13;;;;;;;5.20;3.92;;;;;;;-0.29;96.69;101857.09;1032096;28;20301;-78
2022/04/11 01:14:48;;;;;;;7.78;4.65;;;;;;;-0.30;96.54;101858.88;1036557;28;20371;-79
2022/04/11 01:15:19;;;;;;;4.55;3.80;;;;;;;-0.10;96.66;101857.31;1040634;28;20307;-79
2022/04/11 01:15:54;;;;;;;12.57;4.53;;;;;;;-0.12;96.91;101859.22;1041969;28;20315;-79
2022/04/11 01:16:29;;;;;;;5.85;4.05;;;;;;;-0.23;96.65;101854.84;1042272;28;20705;-79
2022/04/11 01:17:01;;;;;;;6.35;4.53;;;;;;;-0.11;96.52;101855.66;1031406;28;20309;-79
2022/04/11 01:17:34;;;;;;;7.97;3.58;;;;;;;0.21;96.65;101858.31;1030541;28;20294;-79
2022/04/11 01:18:06;;;;;;;8.77;4.95;;;;;;;0.20;96.54;101849.63;1032852;28;20309;-79
2022/04/11 01:18:39;;;;;;;8.02;4.55;;;;;;;0.15;96.34;101854.41;1031466;28;20303;-79
2022/04/11 01:19:11;;;;;;;8.77;4.22;;;;;;;0.19;96.14;101842.72;1034211;28;20301;-79
2022/04/11 01:19:42;;;;;;;4.80;3.97;;;;;;;0.02;96.60;101847.66;1036321;28;20307;-79
2022/04/11 01:20:16;;;;;;;5.70;4.63;;;;;;;-0.17;95.79;101850.91;1036508;28;20300;-79
2022/04/11 01:20:48;;;;;;;9.38;4.53;;;;;;;-0.15;95.83;101854.22;1032677;28;20368;-79
2022/04/11 01:21:27;;;;;;;5.07;3.85;;;;;;;-0.09;95.87;101856.34;1034942;28;20336;-79
2022/04/11 01:21:59;;;;;;;8.25;4.05;;;;;;;-0.04;96.16;101856.81;1032641;28;20783;-79
2022/04/11 01:22:34;;;;;;;9.75;4.13;;;;;;;-0.19;95.80;101847.56;1033142;28;20827;-79
2022/04/11 01:23:06;;;;;;;7.25;4.32;;;;;;;-0.05;95.37;101852.53;1033877;28;20428;-79
2022/04/11 01:23:37;;;;;;;7.93;4.03;;;;;;;-0.17;95.92;101848.28;1034776;28;20390;-79
2022/04/11 01:24:09;;;;;;;6.32;4.40;;;;;;;-0.10;96.13;101844.22;1029349;28;20653;-79
2022/04/11 01:24:41;;;;;;;9.15;3.92;;;;;;;0.03;96.05;101844.09;1036560;28;20293;-79
2022/04/11 01:25:14;;;;;;;8.05;4.47;;;;;;;0.00;95.83;101853.03;1037769;28;20813;-79
2022/04/11 01:25:51;;;;;;;9.70;5.35;;;;;;;-0.15;96.42;101846.38;1036028;28;20304;-79
2022/04/11 01:26:25;;;;;;;6.93;4.18;;;;;;;-0.20;96.13;101844.13;1039749;28;20336;-79
2022/04/11 01:26:57;;;;;;;5.03;4.38;;;;;;;-0.22;95.75;101850.44;1033799;28;20305;-79
2022/04/11 01:27:31;;;;;;;6.35;3.92;;;;;;;-0.09;96.00;101844.09;1039867;28;20303;-79
2022/04/11 01:28:03;;;;;;;4.95;4.45;;;;;;;-0.22;96.11;101847.81;1035950;28;20332;-79
2022/04/11 01:28:38;;;;;;;5.25;3.85;;;;;;;-0.12;95.93;101840.91;1036487;28;20297;-79
2022/04/11 01:29:11;;;;;;;6.00;3.88;;;;;;;-0.29;95.84;101844.00;1033923;28;20779;-79
2022/04/11 01:29:43;;;;;;;7.05;4.53;;;;;;;-0.30;95.83;101843.16;1028873;28;20302;-79
2022/04/11 01:30:16;;;;;;;5.07;4.07;;;;;;;-0.18;96.06;101841.38;1029565;28;20302;-79
2022/04/11 01:30:54;;;;;;;5.82;4.20;;;;;;;-0.27;96.46;101842.09;1034698;28;20305;-79
2022/04/11 01:31:29;;;;;;;6.07;3.88;;;;;;;-0.20;96.39;101840.69;1035018;28;20297;-78
2022/04/11 01:32:03;;;;;;;5.32;4.32;;;;;;;-0.20;96.13;101843.28;1039849;28;20309;-79
2022/04/11 01:32:36;;;;;;;5.93;4.60;;;;;;;-0.19;96.39;101839.72;1040710;28;20305;-80
2022/04/11 01:33:21;;;;;;;6.57;4.05;;;;;;;-0.17;96.46;101832.56;1042203;28;20306;-79
2022/04/11 01:36:53;;;;;;;8.65;3.78;;;;;;;-0.11;96.38;101834.69;1047038;28;20305;-79
2022/04/11 01:37:24;;;;;;;6.65;3.15;;;;;;;-0.21;96.15;101831.16;1045971;28;20389;-79
2022/04/11 01:37:56;;;;;;;4.32;3.85;;;;;;;-0.32;95.97;101835.44;1035659;28;20335;-79
2022/04/11 01:38:28;;;;;;;4.10;3.70;;;;;;;-0.27;96.21;101834.25;1031523;28;20305;-79
2022/04/11 01:39:00;;;;;;;3.90;2.95;;;;;;;-0.10;96.65;101837.19;1027777;28;20515;-78
2022/04/11 01:39:32;;;;;;;6.45;3.30;;;;;;;-0.11;96.47;101838.16;1031868;28;20296;-78
2022/04/11 01:40:04;;;;;;;4.68;3.50;;;;;;;-0.18;96.30;101833.53;1031516;28;20301;-79
2022/04/11 01:40:35;;;;;;;6.88;3.35;;;;;;;-0.24;96.31;101836.66;1028071;28;20392;-79
2022/04/11 01:41:07;;;;;;;5.55;3.53;;;;;;;-0.28;96.36;101835.19;1028974;28;20305;-79
2022/04/11 01:41:38;;;;;;;5.30;4.05;;;;;;;-0.22;96.25;101839.97;1031707;28;20305;-79
2022/04/11 01:42:10;;;;;;;13.00;4.10;;;;;;;-0.34;96.11;101836.50;1032652;28;20369;-80
2022/04/11 01:42:45;;;;;;;7.93;4.22;;;;;;;-0.21;96.35;101836.41;1044535;28;20295;-79
2022/04/11 01:43:17;;;;;;;3.70;3.03;;;;;;;-0.11;96.47;101837.31;1042703;28;20662;-79
2022/04/11 01:43:48;;;;;;;7.47;4.20;;;;;;;-0.12;96.61;101836.50;1035133;28;20896;-79
2022/04/11 01:44:20;;;;;;;7.07;4.00;;;;;;;-0.04;96.46;101839.31;1033931;28;20401;-79
2022/04/11 01:44:51;;;;;;;7.18;3.50;;;;;;;0.06;96.78;101839.44;1029512;28;20305;-80
2022/04/11 01:45:23;;;;;;;7.78;3.70;;;;;;;0.16;97.19;101840.34;1033842;28;20312;-79
2022/04/11 01:45:55;;;;;;;7.05;3.97;;;;;;;0.10;96.66;101835.59;1038087;28;20319;-79
2022/04/11 01:46:59;;;;;;;5.13;4.10;;;;;;;0.01;96.49;101835.53;1027213;28;20337;-79
2022/04/11 01:47:31;;;;;;;7.47;4.07;;;;;;;0.02;96.44;101838.03;1036769;28;20308;-79
2022/04/11 01:48:03;;;;;;;5.57;3.80;;;;;;;0.14;96.78;101833.56;1039168;28;20643;-79
2022/04/11 01:48:34;;;;;;;9.32;3.50;;;;;;;0.21;96.31;101835.56;1031228;28;20305;-80
2022/04/11 01:49:06;;;;;;;8.00;3.70;;;;;;;0.33;96.47;101835.53;1031953;28;20743;-80
2022/04/11 01:49:38;;;;;;;4.57;3.45;;;;;;;0.17;96.19;101834.16;1035136;28;20810;-79
2022/04/11 01:50:10;;;;;;;6.70;4.10;;;;;;;0.07;96.26;101846.34;1035489;28;20313;-79
2022/04/11 01:50:42;;;;;;;8.80;3.63;;;;;;;0.05;96.18;101837.78;1034999;28;20309;-79
2022/04/11 01:51:13;;;;;;;5.38;4.03;;;;;;;-0.01;96.20;101843.47;1034685;28;20305;-79
2022/04/11 01:51:45;;;;;;;7.53;4.18;;;;;;;0.07;96.34;101841.09;1031398;28;20313;-79
2022/04/11 01:52:17;;;;;;;7.07;3.75;;;;;;;-0.07;96.34;101838.72;1032692;28;20695;-79
2022/04/11 01:52:48;;;;;;;11.88;4.18;;;;;;;-0.11;96.14;101829.47;1039759;28;20304;-79
2022/04/11 01:53:20;;;;;;;7.38;3.97;;;;;;;-0.14;96.54;101833.16;1043856;28;20296;-79
2022/04/11 01:53:52;;;;;;;7.40;3.92;;;;;;;-0.17;96.18;101837.81;1033237;28;20847;-80
2022/04/11 01:54:23;;;;;;;5.40;3.85;;;;;;;-0.17;96.30;101832.56;1031675;28;20305;-79
2022/04/11 01:54:55;;;;;;;5.72;3.97;;;;;;;-0.02;96.68;101837.41;1035548;28;20292;-79
2022/04/11 01:55:46;;;;;;;3.75;3.42;;;;;;;-0.17;96.36;101836.03;1039148;28;20310;-79
2022/04/11 01:56:18;;;;;;;5.65;4.15;;;;;;;-0.02;96.46;101831.34;1038328;28;20431;-79
2022/04/11 01:56:50;;;;;;;4.93;3.13;;;;;;;0.05;96.90;101834.31;1035421;28;20312;-79
2022/04/11 01:57:22;;;;;;;11.25;3.75;;;;;;;0.12;96.63;101838.94;1036621;28;20393;-79
2022/04/11 01:57:53;;;;;;;3.60;3.28;;;;;;;0.13;97.11;101839.75;1037295;28;20375;-79
2022/04/11 01:58:25;;;;;;;3.90;3.33;;;;;;;0.13;96.54;101832.72;1043383;28;20441;-79
2022/04/11 01:58:56;;;;;;;5.93;4.18;;;;;;;-0.09;96.77;101838.03;1043075;28;20295;-79
2022/04/11 01:59:28;;;;;;;4.78;3.35;;;;;;;-0.20;96.70;101827.59;1036019;28;20316;-80
2022/04/11 02:00:00;;;;;;;6.88;3.70;;;;;;;-0.08;96.83;101826.59;1037742;28;20297;-79
2022/04/11 02:00:32;;;;;;;5.90;3.83;;;;;;;-0.05;96.78;101826.34;1031950;28;20316;-79
2022/04/11 02:01:05;;;;;;;5.03;3.78;;;;;;;-0.18;96.83;101825.69;1039533;28;20296;-79
2022/04/11 02:01:38;;;;;;;5.68;3.40;;;;;;;0.00;96.72;101829.47;1040210;28;20367;-80
2022/04/11 02:02:10;;;;;;;4.40;3.20;;;;;;;0.05;96.86;101832.53;1041609;28;20288;-79
2022/04/11 02:02:42;;;;;;;7.53;4.68;;;;;;;0.02;96.81;101832.78;1038704;28;20397;-79
2022/04/11 02:03:15;;;;;;;9.35;5.10;;;;;;;-0.15;96.69;101830.66;1035928;28;20379;-79
2022/04/11 02:03:47;;;;;;;5.63;4.55;;;;;;;-0.03;96.65;101834.91;1036990;28;20334;-79
2022/04/11 02:04:19;;;;;;;5.50;4.45;;;;;;;0.05;96.95;101831.69;1037149;28;20305;-79
2022/04/11 02:04:50;;;;;;;6.18;4.75;;;;;;;0.06;96.63;101828.97;1034687;28;20296;-79
2022/04/11 02:05:22;;;;;;;7.43;4.68;;;;;;;0.07;97.05;101833.25;1032124;28;20313;-79
2022/04/11 02:05:54;;;;;;;8.80;4.70;;;;;;;0.10;96.74;101834.78;1031017;28;20653;-79
2022/04/11 02:06:26;;;;;;;8.98;4.70;;;;;;;-0.04;96.72;101833.25;1039820;28;20315;-79
2022/04/11 02:06:59;;;;;;;5.03;3.95;;;;;;;-0.11;96.76;101826.84;1033405;28;20724;-79
2022/04/11 02:07:31;;;;;;;3.97;3.55;;;;;;;0.07;96.70;101835.03;1038931;28;20304;-79
2022/04/11 02:08:07;;;;;;;5.20;3.45;;;;;;;0.11;96.80;101832.03;1034788;28;20304;-79
2022/04/11 02:08:38;;;;;;;5.45;4.10;;;;;;;0.07;96.48;101830.63;1032395;28;20301;-79
2022/04/11 02:09:14;;;;;;;4.90;3.97;;;;;;;-0.01;96.46;101833.84;1028276;28;20357;-79
2022/04/11 02:09:48;;;;;;;5.78;4.05;;;;;;;0.09;96.81;101833.94;1027448;28;20310;-80
2022/04/11 02:10:20;;;;;;;6.45;4.05;;;;;;;0.02;96.61;101837.19;1031971;28;20309;-79
2022/04/11 02:10:51;;;;;;;7.40;4.68;;;;;;;-0.08;96.50;101837.06;1033410;28;20313;-79
2022/04/11 02:11:23;;;;;;;6.82;4.53;;;;;;;0.03;96.62;101839.69;1035818;28;20301;-80
2022/04/11 02:11:55;;;;;;;6.32;3.88;;;;;;;0.06;96.63;101833.38;1031686;28;20312;-79
2022/04/11 02:12:26;;;;;;;6.32;3.83;;;;;;;0.07;96.84;101846.34;1034725;28;20660;-79
2022/04/11 02:12:58;;;;;;;5.60;4.13;;;;;;;0.09;96.45;101839.19;1037019;28;20295;-79
2022/04/11 02:13:30;;;;;;;6.85;3.90;;;;;;;0.09;96.83;101847.03;1031105;28;20372;-79
2022/04/11 02:14:01;;;;;;;5.45;4.30;;;;;;;0.04;96.57;101849.19;1032518;28;20636;-79
2022/04/11 02:14:33;;;;;;;5.03;4.63;;;;;;;0.15;96.53;101841.31;1037442;28;20304;-79
2022/04/11 02:15:05;;;;;;;6.03;3.92;;;;;;;0.16;96.49;101850.00;1040128;28;20288;-79
2022/04/11 02:15:36;;;;;;;4.68;4.15;;;;;;;-0.03;96.08;101846.22;1043505;28;20307;-79
2022/04/11 02:16:08;;;;;;;5.10;3.78;;;;;;;-0.07;96.42;101849.22;1039943;28;20303;-79
2022/04/11 02:16:40;;;;;;;7.00;4.10;;;;;;;-0.07;96.54;101843.97;1039274;28;20300;-79
2022/04/11 02:17:11;;;;;;;6.35;3.88;;;;;;;0.04;96.76;101843.97;1035541;28;20346;-79
2022/04/11 02:17:46;;;;;;;7.00;4.47;;;;;;;0.04;96.40;101845.75;1028916;28;20305;-79
2022/04/11 02:18:17;;;;;;;6.78;4.30;;;;;;;0.06;96.64;101849.06;1036030;28;20354;-79
2022/04/11 02:18:52;;;;;;;4.95;4.50;;;;;;;-0.02;96.49;101841.81;1041284;28;20307;-78
2022/04/11 02:19:23;;;;;;;7.50;3.83;;;;;;;-0.03;96.53;101846.22;1045065;28;20314;-78
2022/04/11 02:19:55;;;;;;;5.03;4.53;;;;;;;-0.02;96.52;101841.81;1037796;28;20301;-78
2022/04/11 02:20:26;;;;;;;13.35;4.55;;;;;;;-0.19;96.34;101850.19;1043526;28;20310;-78
2022/04/11 02:20:58;;;;;;;6.45;4.82;;;;;;;-0.16;96.43;101844.72;1044072;28;20327;-79
2022/04/11 02:21:30;;;;;;;6.40;4.80;;;;;;;0.01;96.76;101841.59;1041221;28;20300;-78
2022/04/11 02:22:03;;;;;;;5.45;4.07;;;;;;;0.01;96.68;101844.22;1040747;28;20327;-78
2022/04/11 02:22:44;;;;;;;5.55;4.85;;;;;;;0.07;96.88;101841.09;1039834;28;20308;-78
2022/04/11 02:23:16;;;;;;;9.98;4.57;;;;;;;0.13;96.84;101851.06;1034021;28;22084;-78
2022/04/11 02:23:47;;;;;;;5.80;4.10;;;;;;;0.13;96.48;101845.00;1039438;28;20273;-78
2022/04/11 02:24:19;;;;;;;7.53;4.72;;;;;;;0.10;96.57;101846.09;1041083;28;20303;-78
2022/04/11 02:24:51;;;;;;;5.30;4.63;;;;;;;0.10;96.70;101842.63;1033632;28;20312;-78
2022/04/11 02:25:24;;;;;;;5.70;4.85;;;;;;;0.05;96.65;101847.41;1032137;28;20357;-78
2022/04/11 02:25:56;;;;;;;8.50;4.20;;;;;;;0.16;96.46;101842.97;1035573;28;20305;-78
2022/04/11 02:26:28;;;;;;;6.53;4.85;;;;;;;0.13;96.43;101845.00;1031962;28;20826;-78
2022/04/11 02:27:00;;;;;;;9.82;5.07;;;;;;;0.06;96.53;101838.59;1037164;28;20307;-78
2022/04/11 02:27:31;;;;;;;7.22;4.53;;;;;;;-0.13;96.45;101844.47;1043738;28;20295;-78
2022/04/11 02:28:03;;;;;;;5.43;4.75;;;;;;;-0.17;96.12;101843.06;1043752;28;20299;-78
2022/04/11 02:28:35;;;;;;;18.13;4.78;;;;;;;-0.16;96.39;101834.25;1039922;28;20335;-79
2022/04/11 02:29:07;;;;;;;4.80;4.25;;;;;;;-0.27;96.29;101842.97;1044276;28;20310;-79
2022/04/11 02:29:40;;;;;;;4.85;3.90;;;;;;;-0.31;96.89;101834.50;1040611;28;20307;-79
2022/04/11 02:30:13;;;;;;;6.28;4.60;;;;;;;-0.14;96.68;101842.81;1035487;28;20308;-79
2022/04/11 02:30:46;;;;;;;4.78;4.28;;;;;;;-0.31;96.59;101837.09;1034830;28;20383;-79
2022/04/11 02:31:17;;;;;;;4.35;3.95;;;;;;;-0.39;96.85;101834.25;1035126;28;20674;-79
2022/04/11 02:31:49;;;;;;;5.88;4.18;;;;;;;-0.41;96.75;101833.56;1036390;28;20367;-79
2022/04/11 02:32:21;;;;;;;6.25;4.50;;;;;;;-0.31;96.94;101837.09;1040327;28;20319;-79
2022/04/11 02:32:54;;;;;;;4.72;4.32;;;;;;;-0.21;97.20;101839.84;1042482;28;20638;-79
2022/04/11 02:33:27;;;;;;;7.35;4.35;;;;;;;-0.25;97.07;101838.44;1043548;28;20310;-79
2022/04/11 02:33:59;;;;;;;8.98;4.20;;;;;;;-0.26;96.60;101833.31;1041137;28;20304;-80
2022/04/11 02:34:31;;;;;;;5.50;4.78;;;;;;;-0.39;97.28;101844.72;1042551;28;20303;-79
2022/04/11 02:35:03;;;;;;;8.23;5.03;;;;;;;-0.34;96.93;101837.34;1041358;28;20373;-79
2022/04/11 02:35:35;;;;;;;5.63;4.28;;;;;;;-0.23;97.06;101840.94;1032753;28;20297;-79